Time;durP1;ratioP1;P1;durP2;ratioP2;P2;SDS_P1;SDS_P2;PMS_P1;PMS_P2;Temp;Humidity;BMP_temperature;BMP_pressure;BME280_temperature;BME280_humidity;BME280_pressure;Samples;Min_cycle;Max_cycle;Signal;HPM_P1;HPM_P2
2023/10/24 00:00:50;;;;;;;8.52;3.03;;;;;;;;;;5039178;28;20407;-60
2023/10/24 00:03:17;;;;;;;6.57;3.00;;;;;;;;;;5042548;28;20894;-59
2023/10/24 00:05:47;;;;;;;7.38;3.10;;;;;;;;;;5043290;28;20464;-60
2023/10/24 00:08:14;;;;;;;7.68;3.40;;;;;;;;;;5037289;28;20409;-60
2023/10/24 00:10:41;;;;;;;7.43;3.30;;;;;;;;;;5040436;28;20429;-60
2023/10/24 00:13:08;;;;;;;9.35;3.45;;;;;;;;;;5038375;28;20503;-60
2023/10/24 00:15:35;;;;;;;5.68;3.10;;;;;;;;;;5040984;28;20413;-59
2023/10/24 00:18:03;;;;;;;4.38;2.95;;;;;;;;;;5039749;28;20415;-58
2023/10/24 00:20:30;;;;;;;8.70;3.38;;;;;;;;;;5038386;28;20897;-60
2023/10/24 00:22:58;;;;;;;4.88;3.30;;;;;;;;;;5040905;28;20971;-60
2023/10/24 00:25:25;;;;;;;7.05;3.70;;;;;;;;;;5040092;28;20422;-58
2023/10/24 00:27:52;;;;;;;7.13;3.22;;;;;;;;;;5037951;28;20429;-60
2023/10/24 00:30:19;;;;;;;8.25;3.60;;;;;;;;;;5040830;28;20413;-58
2023/10/24 00:32:49;;;;;;;9.07;3.78;;;;;;;;;;5039981;28;20968;-60
2023/10/24 00:35:16;;;;;;;7.90;3.65;;;;;;;;;;5042549;28;20417;-60
2023/10/24 00:37:44;;;;;;;7.30;3.67;;;;;;;;;;5041021;28;20476;-60
2023/10/24 00:40:13;;;;;;;5.65;3.65;;;;;;;;;;5040137;28;20415;-59
2023/10/24 00:42:40;;;;;;;5.40;3.30;;;;;;;;;;5038253;28;20464;-58
2023/10/24 00:45:07;;;;;;;7.47;3.50;;;;;;;;;;5040541;28;20413;-60
2023/10/24 00:47:34;;;;;;;6.88;3.30;;;;;;;;;;5039408;28;20423;-61
2023/10/24 00:50:02;;;;;;;7.80;3.78;;;;;;;;;;5037899;28;20865;-59
2023/10/24 00:52:29;;;;;;;8.63;3.70;;;;;;;;;;5040509;28;20432;-60
2023/10/24 00:54:56;;;;;;;6.22;3.35;;;;;;;;;;5039752;28;20889;-59
2023/10/24 00:57:25;;;;;;;5.40;3.45;;;;;;;;;;5037813;28;20477;-60
2023/10/24 00:59:52;;;;;;;5.65;3.22;;;;;;;;;;5040379;28;20475;-60
2023/10/24 01:02:20;;;;;;;6.37;3.37;;;;;;;;;;5040309;28;20914;-60
2023/10/24 01:04:47;;;;;;;7.78;3.25;;;;;;;;;;5045723;28;20442;-60
2023/10/24 01:07:14;;;;;;;5.30;3.20;;;;;;;;;;5045364;28;20887;-60
2023/10/24 01:09:41;;;;;;;7.57;3.28;;;;;;;;;;5043073;28;20481;-59
2023/10/24 01:12:08;;;;;;;6.85;3.03;;;;;;;;;;5044685;28;20429;-60
2023/10/24 01:14:36;;;;;;;5.22;2.95;;;;;;;;;;5042550;28;20414;-60
2023/10/24 01:17:10;;;;;;;7.57;3.15;;;;;;;;;;5042649;28;20407;-58
2023/10/24 01:19:37;;;;;;;4.20;3.05;;;;;;;;;;5033067;28;20985;-60
2023/10/24 01:22:05;;;;;;;6.47;3.10;;;;;;;;;;5033393;28;20464;-59
2023/10/24 01:24:33;;;;;;;6.25;2.88;;;;;;;;;;5033126;28;20960;-59
2023/10/24 01:27:00;;;;;;;5.80;3.10;;;;;;;;;;5032912;28;20399;-59
2023/10/24 01:29:27;;;;;;;5.37;2.70;;;;;;;;;;5032655;28;20422;-58
2023/10/24 01:31:54;;;;;;;4.60;2.70;;;;;;;;;;5043857;28;20466;-59
2023/10/24 01:34:21;;;;;;;5.35;2.80;;;;;;;;;;5041716;28;20465;-57
2023/10/24 01:36:48;;;;;;;5.82;2.75;;;;;;;;;;5047629;28;20486;-59
2023/10/24 01:39:16;;;;;;;7.97;2.72;;;;;;;;;;5045060;28;20408;-58
2023/10/24 01:41:43;;;;;;;5.63;2.50;;;;;;;;;;5041366;28;20553;-59
2023/10/24 01:44:10;;;;;;;4.85;2.63;;;;;;;;;;5042950;28;20417;-60
2023/10/24 01:46:37;;;;;;;4.15;2.38;;;;;;;;;;5043391;28;20428;-59
2023/10/24 01:49:04;;;;;;;4.53;2.58;;;;;;;;;;5041108;28;20468;-59
2023/10/24 01:51:31;;;;;;;4.00;2.30;;;;;;;;;;5043437;28;20429;-58
2023/10/24 01:53:58;;;;;;;6.00;2.70;;;;;;;;;;5043679;28;20528;-59
2023/10/24 01:56:26;;;;;;;5.35;2.38;;;;;;;;;;5041391;28;20828;-60
2023/10/24 01:58:53;;;;;;;5.45;2.33;;;;;;;;;;5042288;28;20449;-58
2023/10/24 02:01:20;;;;;;;3.73;2.20;;;;;;;;;;5043200;28;20459;-59
2023/10/24 02:03:47;;;;;;;3.35;2.20;;;;;;;;;;5040794;28;20411;-58
2023/10/24 02:06:14;;;;;;;4.75;2.25;;;;;;;;;;5050756;28;20929;-59
2023/10/24 02:08:41;;;;;;;4.78;2.05;;;;;;;;;;5043498;28;20415;-57
2023/10/24 02:11:08;;;;;;;3.72;1.98;;;;;;;;;;5044235;28;20456;-60
2023/10/24 02:13:37;;;;;;;3.55;2.00;;;;;;;;;;5042897;28;20439;-60
2023/10/24 02:16:04;;;;;;;3.08;2.00;;;;;;;;;;5042439;28;20413;-60
2023/10/24 02:18:31;;;;;;;5.38;2.25;;;;;;;;;;5040542;28;20789;-60
2023/10/24 02:20:58;;;;;;;5.47;2.07;;;;;;;;;;5043037;28;20463;-59
2023/10/24 02:23:25;;;;;;;4.00;2.20;;;;;;;;;;5042219;28;20415;-58
2023/10/24 02:25:52;;;;;;;5.18;2.22;;;;;;;;;;5040349;28;20461;-60
2023/10/24 02:28:19;;;;;;;4.38;2.10;;;;;;;;;;5042674;28;20417;-60
2023/10/24 02:30:48;;;;;;;4.10;2.10;;;;;;;;;;5042117;28;20419;-60
2023/10/24 02:33:15;;;;;;;5.10;2.10;;;;;;;;;;5040483;28;21178;-58
2023/10/24 02:35:42;;;;;;;4.55;1.77;;;;;;;;;;5041800;28;20426;-58
2023/10/24 02:38:09;;;;;;;3.50;1.98;;;;;;;;;;5047293;28;20409;-59
2023/10/24 02:40:36;;;;;;;4.90;2.10;;;;;;;;;;5040828;28;20414;-59
2023/10/24 02:43:03;;;;;;;3.25;1.80;;;;;;;;;;5048262;28;20487;-58
2023/10/24 02:45:30;;;;;;;4.60;2.13;;;;;;;;;;5041914;28;20417;-59
2023/10/24 02:47:58;;;;;;;3.60;1.83;;;;;;;;;;5042090;28;20417;-57
2023/10/24 02:50:25;;;;;;;3.78;1.88;;;;;;;;;;5031787;28;20456;-56
2023/10/24 02:52:52;;;;;;;3.53;2.10;;;;;;;;;;5033471;28;20430;-59
2023/10/24 02:55:19;;;;;;;3.60;1.73;;;;;;;;;;5050415;28;20420;-57
2023/10/24 02:57:46;;;;;;;4.88;1.92;;;;;;;;;;5042848;28;20419;-59
2023/10/24 03:00:13;;;;;;;6.20;1.80;;;;;;;;;;5042088;28;20988;-59
2023/10/24 03:02:40;;;;;;;4.60;1.90;;;;;;;;;;5042148;28;20404;-59
2023/10/24 03:05:09;;;;;;;3.85;2.00;;;;;;;;;;5043625;28;20420;-59
2023/10/24 03:07:36;;;;;;;5.03;1.95;;;;;;;;;;5043838;28;20484;-60
2023/10/24 03:10:03;;;;;;;5.37;2.33;;;;;;;;;;5042267;28;20420;-58
2023/10/24 03:12:32;;;;;;;2.83;1.90;;;;;;;;;;5039508;28;20981;-60
2023/10/24 03:14:59;;;;;;;3.80;1.90;;;;;;;;;;5041312;28;20467;-59
2023/10/24 03:17:27;;;;;;;3.70;1.90;;;;;;;;;;5043364;28;20413;-60
2023/10/24 03:19:54;;;;;;;3.03;1.88;;;;;;;;;;5042501;28;20460;-60
2023/10/24 03:22:22;;;;;;;4.28;1.80;;;;;;;;;;5041096;28;20949;-60
2023/10/24 03:24:50;;;;;;;3.80;1.95;;;;;;;;;;5042530;28;20413;-59
2023/10/24 03:27:17;;;;;;;3.17;1.70;;;;;;;;;;5041937;28;20437;-58
2023/10/24 03:29:44;;;;;;;4.70;1.80;;;;;;;;;;5040633;28;20940;-59
2023/10/24 03:32:11;;;;;;;4.50;2.00;;;;;;;;;;5039527;28;20502;-58
2023/10/24 03:34:38;;;;;;;3.85;2.10;;;;;;;;;;5042880;28;20413;-58
2023/10/24 03:37:05;;;;;;;3.28;2.22;;;;;;;;;;5045195;28;20421;-60
2023/10/24 03:39:34;;;;;;;3.25;2.20;;;;;;;;;;5039728;28;20490;-60
2023/10/24 03:42:02;;;;;;;3.70;2.40;;;;;;;;;;5042065;28;20580;-59
2023/10/24 03:44:29;;;;;;;2.80;2.20;;;;;;;;;;5040615;28;20800;-60
2023/10/24 03:46:56;;;;;;;4.90;2.47;;;;;;;;;;5039095;28;20418;-59
2023/10/24 03:49:23;;;;;;;3.97;2.53;;;;;;;;;;5041337;28;20413;-59
2023/10/24 03:51:50;;;;;;;4.90;2.58;;;;;;;;;;5040172;28;20515;-60
2023/10/24 03:54:17;;;;;;;5.60;2.80;;;;;;;;;;5039563;28;20418;-58
2023/10/24 03:56:45;;;;;;;3.88;2.95;;;;;;;;;;5041596;28;20479;-59
2023/10/24 03:59:12;;;;;;;4.88;3.10;;;;;;;;;;5039552;28;21000;-59
2023/10/24 04:01:40;;;;;;;5.43;3.20;;;;;;;;;;5039311;28;20415;-60
2023/10/24 04:04:07;;;;;;;5.75;3.40;;;;;;;;;;5039060;28;20793;-59
2023/10/24 04:06:35;;;;;;;6.03;3.40;;;;;;;;;;5045549;28;20413;-60
2023/10/24 04:09:04;;;;;;;4.75;3.45;;;;;;;;;;5041202;28;20409;-59
2023/10/24 04:11:32;;;;;;;4.70;3.30;;;;;;;;;;5038749;28;20455;-58
2023/10/24 04:14:00;;;;;;;4.22;3.60;;;;;;;;;;5040400;28;20500;-59
2023/10/24 04:16:27;;;;;;;4.10;3.15;;;;;;;;;;5041180;28;20405;-59
2023/10/24 04:18:54;;;;;;;6.43;3.65;;;;;;;;;;5030681;28;20407;-57
2023/10/24 04:21:21;;;;;;;4.72;3.47;;;;;;;;;;5030769;28;20419;-60
2023/10/24 04:23:48;;;;;;;5.47;3.73;;;;;;;;;;5030270;28;20399;-60
2023/10/24 04:26:15;;;;;;;4.95;4.03;;;;;;;;;;5030835;28;20410;-59
2023/10/24 04:28:42;;;;;;;5.40;3.65;;;;;;;;;;5029690;28;20423;-59
2023/10/24 04:31:11;;;;;;;5.28;3.85;;;;;;;;;;5037284;28;20418;-60
2023/10/24 04:33:41;;;;;;;5.93;3.90;;;;;;;;;;5039271;28;20470;-57
2023/10/24 04:36:11;;;;;;;4.80;3.60;;;;;;;;;;5045529;28;20417;-57
2023/10/24 04:38:38;;;;;;;6.18;3.72;;;;;;;;;;5040342;28;20445;-59
2023/10/24 04:41:05;;;;;;;4.45;3.75;;;;;;;;;;5047153;28;20469;-59
2023/10/24 04:43:32;;;;;;;5.35;3.30;;;;;;;;;;5039806;28;20467;-60
2023/10/24 04:45:59;;;;;;;7.50;3.67;;;;;;;;;;5041242;28;20414;-59
2023/10/24 04:48:28;;;;;;;6.25;3.50;;;;;;;;;;5037930;28;20446;-59
2023/10/24 04:50:55;;;;;;;5.68;4.10;;;;;;;;;;5038871;28;20418;-59
2023/10/24 04:53:22;;;;;;;5.43;3.40;;;;;;;;;;5040785;28;20811;-59
2023/10/24 04:55:49;;;;;;;5.18;3.53;;;;;;;;;;5037943;28;20419;-59
2023/10/24 04:58:16;;;;;;;4.53;3.28;;;;;;;;;;5038672;28;20425;-59
2023/10/24 05:00:43;;;;;;;5.88;2.90;;;;;;;;;;5040864;28;20796;-60
2023/10/24 05:03:10;;;;;;;6.75;3.10;;;;;;;;;;5038193;28;20417;-60
2023/10/24 05:05:38;;;;;;;4.55;2.90;;;;;;;;;;5042764;28;20510;-59
2023/10/24 05:08:09;;;;;;;4.50;3.13;;;;;;;;;;5040302;28;20473;-59
2023/10/24 05:10:36;;;;;;;3.67;3.03;;;;;;;;;;5038885;28;20447;-59
2023/10/24 05:13:03;;;;;;;6.68;3.17;;;;;;;;;;5039569;28;20432;-59
2023/10/24 05:15:31;;;;;;;3.47;2.92;;;;;;;;;;5037475;28;20447;-61
2023/10/24 05:17:58;;;;;;;5.22;2.90;;;;;;;;;;5039209;28;20505;-60
2023/10/24 05:20:25;;;;;;;3.60;2.75;;;;;;;;;;5039608;28;20491;-62
2023/10/24 05:22:53;;;;;;;4.20;2.53;;;;;;;;;;5037541;28;20419;-59
2023/10/24 05:25:20;;;;;;;2.80;2.20;;;;;;;;;;5039581;28;20479;-61
2023/10/24 05:27:47;;;;;;;4.70;2.20;;;;;;;;;;5039394;28;20413;-61
2023/10/24 05:30:14;;;;;;;4.78;2.33;;;;;;;;;;5037815;28;20437;-61
2023/10/24 05:32:41;;;;;;;4.28;2.45;;;;;;;;;;5039844;28;20425;-57
2023/10/24 05:35:09;;;;;;;3.05;2.17;;;;;;;;;;5043865;28;20880;-61
2023/10/24 05:37:36;;;;;;;3.83;2.40;;;;;;;;;;5043540;28;20467;-62
2023/10/24 05:40:05;;;;;;;3.70;2.42;;;;;;;;;;5041692;28;20444;-61
2023/10/24 05:42:32;;;;;;;4.25;2.47;;;;;;;;;;5038575;28;20415;-60
2023/10/24 05:44:59;;;;;;;4.10;2.90;;;;;;;;;;5039999;28;20796;-55
2023/10/24 05:47:26;;;;;;;3.63;2.42;;;;;;;;;;5038116;28;20473;-58
2023/10/24 05:49:53;;;;;;;4.25;2.65;;;;;;;;;;5040065;28;20409;-60
2023/10/24 05:52:20;;;;;;;3.70;2.63;;;;;;;;;;5043959;28;20505;-59
2023/10/24 05:54:47;;;;;;;3.50;2.60;;;;;;;;;;5041750;28;20460;-61
2023/10/24 05:57:16;;;;;;;3.47;2.70;;;;;;;;;;5042870;28;20459;-62
2023/10/24 05:59:43;;;;;;;3.97;2.80;;;;;;;;;;5044243;28;20850;-62
2023/10/24 06:02:10;;;;;;;4.50;2.70;;;;;;;;;;5041354;28;20813;-55
2023/10/24 06:04:37;;;;;;;3.65;2.80;;;;;;;;;;5041918;28;20420;-57
2023/10/24 06:07:04;;;;;;;4.63;3.50;;;;;;;;;;5052947;28;20422;-59
2023/10/24 06:09:31;;;;;;;5.10;3.63;;;;;;;;;;5049483;28;20457;-59
2023/10/24 06:11:58;;;;;;;5.63;4.20;;;;;;;;;;5044519;28;20418;-60
2023/10/24 06:14:26;;;;;;;5.13;4.03;;;;;;;;;;5042870;28;21005;-59
2023/10/24 06:16:53;;;;;;;4.18;3.78;;;;;;;;;;5043020;28;20504;-59
2023/10/24 06:19:20;;;;;;;4.07;3.67;;;;;;;;;;5041743;28;20465;-59
2023/10/24 06:21:47;;;;;;;4.75;4.07;;;;;;;;;;5041041;28;21081;-59
2023/10/24 06:24:14;;;;;;;4.95;4.13;;;;;;;;;;5043331;28;20467;-59
2023/10/24 06:26:41;;;;;;;5.45;3.90;;;;;;;;;;5041365;28;20426;-59
2023/10/24 06:29:08;;;;;;;5.07;3.50;;;;;;;;;;5041126;28;20473;-60
2023/10/24 06:31:36;;;;;;;5.65;3.40;;;;;;;;;;5042973;28;20413;-60
2023/10/24 06:34:03;;;;;;;4.43;3.45;;;;;;;;;;5041584;28;20438;-59
2023/10/24 06:36:31;;;;;;;3.95;3.50;;;;;;;;;;5049872;28;20883;-59
2023/10/24 06:38:58;;;;;;;4.07;3.60;;;;;;;;;;5042131;28;20415;-60
2023/10/24 06:41:25;;;;;;;3.50;3.00;;;;;;;;;;5042214;28;20409;-60
2023/10/24 06:43:52;;;;;;;4.20;3.03;;;;;;;;;;5042321;28;20408;-58
2023/10/24 06:46:19;;;;;;;5.25;2.92;;;;;;;;;;5039813;28;20908;-60
2023/10/24 06:48:49;;;;;;;5.60;2.88;;;;;;;;;;5042244;28;20494;-59
2023/10/24 06:51:16;;;;;;;2.95;2.65;;;;;;;;;;5042103;28;20818;-58
2023/10/24 06:53:43;;;;;;;4.25;2.70;;;;;;;;;;5039614;28;20476;-59
2023/10/24 06:56:10;;;;;;;3.70;2.60;;;;;;;;;;5041942;28;20421;-59
2023/10/24 06:58:37;;;;;;;3.38;2.38;;;;;;;;;;5041865;28;20417;-59
2023/10/24 07:01:06;;;;;;;3.03;2.30;;;;;;;;;;5041006;28;20482;-60
2023/10/24 07:03:33;;;;;;;3.80;2.50;;;;;;;;;;5040912;28;20418;-62
2023/10/24 07:06:01;;;;;;;4.30;2.35;;;;;;;;;;5048706;28;20446;-64
2023/10/24 07:08:28;;;;;;;3.35;2.40;;;;;;;;;;5045590;28;20415;-62
2023/10/24 07:10:55;;;;;;;2.83;2.17;;;;;;;;;;5040578;28;20445;-65
2023/10/24 07:13:23;;;;;;;4.60;2.10;;;;;;;;;;5046021;28;20432;-61
2023/10/24 07:15:50;;;;;;;3.97;1.80;;;;;;;;;;5042198;28;20410;-62
2023/10/24 07:18:17;;;;;;;3.00;2.10;;;;;;;;;;5041736;28;20490;-60
2023/10/24 07:20:44;;;;;;;3.72;2.00;;;;;;;;;;5040616;28;20465;-61
2023/10/24 07:23:12;;;;;;;4.05;2.20;;;;;;;;;;5042229;28;20528;-64
2023/10/24 07:25:39;;;;;;;5.70;1.70;;;;;;;;;;5039925;28;20422;-62
2023/10/24 07:28:06;;;;;;;3.70;1.98;;;;;;;;;;5040224;28;20411;-63
2023/10/24 07:30:33;;;;;;;3.58;2.00;;;;;;;;;;5043085;28;20414;-60
2023/10/24 07:33:00;;;;;;;3.65;1.85;;;;;;;;;;5039821;28;20434;-61
2023/10/24 07:35:27;;;;;;;2.30;1.80;;;;;;;;;;5046468;28;20405;-63
2023/10/24 07:37:54;;;;;;;5.07;1.80;;;;;;;;;;5041374;28;20410;-64
2023/10/24 07:40:22;;;;;;;4.18;1.80;;;;;;;;;;5041466;28;20501;-61
2023/10/24 07:42:49;;;;;;;3.25;1.60;;;;;;;;;;5040798;28;20418;-63
2023/10/24 07:45:16;;;;;;;3.27;1.70;;;;;;;;;;5041364;28;20421;-63
2023/10/24 07:47:43;;;;;;;2.75;1.70;;;;;;;;;;5040245;28;20414;-59
2023/10/24 07:50:11;;;;;;;2.70;1.70;;;;;;;;;;5043182;28;20413;-58
2023/10/24 07:52:38;;;;;;;2.28;1.33;;;;;;;;;;5041184;28;20446;-58
2023/10/24 07:55:05;;;;;;;2.90;1.45;;;;;;;;;;5042451;28;20911;-60
2023/10/24 07:57:34;;;;;;;2.97;1.52;;;;;;;;;;5038906;28;20421;-59
2023/10/24 08:00:01;;;;;;;3.40;1.60;;;;;;;;;;5042594;28;20447;-59
2023/10/24 08:02:28;;;;;;;2.78;1.60;;;;;;;;;;5037106;28;20414;-58
2023/10/24 08:04:55;;;;;;;3.13;1.30;;;;;;;;;;5046382;28;20410;-59
2023/10/24 08:07:22;;;;;;;1.88;1.50;;;;;;;;;;5047043;28;20760;-63
2023/10/24 08:09:49;;;;;;;2.47;1.77;;;;;;;;;;5042027;28;20407;-64
2023/10/24 08:12:16;;;;;;;2.20;1.50;;;;;;;;;;5042295;28;20413;-63
2023/10/24 08:14:44;;;;;;;2.65;1.55;;;;;;;;;;5038435;28;20483;-63
2023/10/24 08:17:11;;;;;;;3.97;1.88;;;;;;;;;;5037646;28;20929;-63
2023/10/24 08:19:38;;;;;;;1.93;1.60;;;;;;;;;;5033446;28;20471;-60
2023/10/24 08:22:05;;;;;;;2.47;1.50;;;;;;;;;;5039005;28;20411;-64
2023/10/24 08:24:32;;;;;;;2.80;1.60;;;;;;;;;;5032445;28;20411;-62
2023/10/24 08:26:59;;;;;;;3.03;1.50;;;;;;;;;;5034113;28;20418;-61
2023/10/24 08:29:26;;;;;;;3.13;1.48;;;;;;;;;;5038129;28;20413;-60
2023/10/24 08:31:55;;;;;;;2.60;1.52;;;;;;;;;;5032280;28;20445;-63
2023/10/24 08:34:22;;;;;;;3.20;1.73;;;;;;;;;;5039154;28;20490;-64
2023/10/24 08:36:49;;;;;;;2.10;1.90;;;;;;;;;;5034474;28;20464;-63
2023/10/24 08:39:16;;;;;;;3.15;1.58;;;;;;;;;;5035482;28;20892;-66
2023/10/24 08:41:47;;;;;;;3.23;1.80;;;;;;;;;;5033673;28;20419;-63
2023/10/24 08:44:15;;;;;;;4.07;1.55;;;;;;;;;;5035856;28;20466;-61
2023/10/24 08:46:42;;;;;;;2.75;1.40;;;;;;;;;;5035166;28;20422;-58
2023/10/24 08:49:11;;;;;;;3.72;1.70;;;;;;;;;;5033503;28;20488;-57
2023/10/24 08:51:38;;;;;;;2.22;1.50;;;;;;;;;;5036182;28;20894;-59
2023/10/24 08:54:05;;;;;;;2.35;1.40;;;;;;;;;;5038498;28;20425;-59
2023/10/24 08:56:33;;;;;;;3.70;1.50;;;;;;;;;;5039559;28;20413;-62
2023/10/24 08:59:01;;;;;;;4.57;1.35;;;;;;;;;;5034641;28;20546;-64
2023/10/24 09:01:29;;;;;;;3.10;1.50;;;;;;;;;;5035929;28;20462;-60
2023/10/24 09:03:56;;;;;;;2.53;1.37;;;;;;;;;;5034001;28;20407;-66
2023/10/24 09:06:25;;;;;;;2.20;1.20;;;;;;;;;;5045432;28;20467;-67
2023/10/24 09:08:52;;;;;;;3.20;1.70;;;;;;;;;;5040801;28;20410;-65
2023/10/24 09:11:19;;;;;;;2.88;1.40;;;;;;;;;;5039468;28;20418;-65
2023/10/24 09:13:46;;;;;;;3.97;1.40;;;;;;;;;;5038013;28;20431;-63
2023/10/24 09:16:13;;;;;;;3.72;1.67;;;;;;;;;;5040150;28;20482;-66
2023/10/24 09:18:41;;;;;;;3.05;1.45;;;;;;;;;;5039014;28;20472;-70
2023/10/24 09:21:08;;;;;;;3.15;1.60;;;;;;;;;;5037652;28;20415;-66
2023/10/24 09:23:37;;;;;;;2.85;1.50;;;;;;;;;;5039325;28;20415;-66
2023/10/24 09:26:05;;;;;;;3.83;1.70;;;;;;;;;;5042257;28;21647;-64
2023/10/24 09:28:33;;;;;;;3.42;1.90;;;;;;;;;;5044952;28;20863;-65
2023/10/24 09:31:00;;;;;;;2.38;1.35;;;;;;;;;;5042477;28;20890;-62
2023/10/24 09:33:27;;;;;;;2.00;1.13;;;;;;;;;;5050516;28;20443;-62
2023/10/24 09:35:55;;;;;;;2.53;1.53;;;;;;;;;;5051232;28;20449;-60
2023/10/24 09:38:24;;;;;;;3.67;1.52;;;;;;;;;;5053715;28;20947;-65
2023/10/24 09:40:53;;;;;;;2.92;1.50;;;;;;;;;;5045625;28;20459;-68
2023/10/24 09:43:21;;;;;;;4.18;1.83;;;;;;;;;;5044763;28;20461;-68
2023/10/24 09:45:49;;;;;;;3.75;1.88;;;;;;;;;;5047978;28;20452;-70
2023/10/24 09:48:17;;;;;;;3.13;1.60;;;;;;;;;;5039607;28;20808;-62
2023/10/24 09:50:44;;;;;;;4.35;1.60;;;;;;;;;;5046617;28;20435;-64
2023/10/24 09:53:12;;;;;;;5.10;1.70;;;;;;;;;;5043611;28;20459;-65
2023/10/24 09:55:40;;;;;;;5.13;1.60;;;;;;;;;;5040351;28;20430;-65
2023/10/24 09:58:09;;;;;;;2.83;1.50;;;;;;;;;;5041205;28;20449;-65
2023/10/24 10:00:37;;;;;;;1.95;1.30;;;;;;;;;;5042778;28;20496;-65
2023/10/24 10:03:04;;;;;;;2.58;1.50;;;;;;;;;;5040965;28;20519;-63
2023/10/24 10:05:32;;;;;;;2.13;1.50;;;;;;;;;;5045348;28;20421;-63
2023/10/24 10:08:02;;;;;;;2.67;1.70;;;;;;;;;;5047399;28;20995;-65
2023/10/24 10:10:29;;;;;;;2.55;1.48;;;;;;;;;;5043530;28;20462;-64
2023/10/24 10:13:00;;;;;;;2.78;1.35;;;;;;;;;;5042119;28;20422;-63
2023/10/24 10:15:36;;;;;;;2.58;1.50;;;;;;;;;;5042056;28;20610;-64
2023/10/24 10:18:10;;;;;;;4.43;1.75;;;;;;;;;;5041779;28;20472;-64
2023/10/24 10:20:48;;;;;;;3.38;1.40;;;;;;;;;;5040902;28;20464;-64
2023/10/24 10:23:26;;;;;;;3.30;1.40;;;;;;;;;;5041221;28;20894;-61
2023/10/24 10:25:56;;;;;;;2.72;1.67;;;;;;;;;;5041404;28;20464;-62
2023/10/24 10:28:31;;;;;;;3.22;2.28;;;;;;;;;;5044144;28;20478;-64
2023/10/24 10:31:05;;;;;;;5.13;2.80;;;;;;;;;;5042053;28;20471;-62
2023/10/24 10:33:32;;;;;;;3.13;1.50;;;;;;;;;;5037723;28;20421;-62
2023/10/24 10:36:02;;;;;;;3.37;1.50;;;;;;;;;;5040810;28;20496;-61
2023/10/24 10:38:41;;;;;;;2.90;1.80;;;;;;;;;;5036822;28;20454;-61
2023/10/24 10:41:28;;;;;;;2.65;1.63;;;;;;;;;;5034597;28;20786;-64
2023/10/24 10:43:57;;;;;;;3.15;1.88;;;;;;;;;;5037155;28;20468;-64
2023/10/24 10:46:26;;;;;;;3.97;1.98;;;;;;;;;;5036071;28;20486;-63
2023/10/24 10:48:54;;;;;;;2.47;1.70;;;;;;;;;;5038171;28;20885;-63
2023/10/24 10:51:22;;;;;;;3.25;1.90;;;;;;;;;;5039060;28;20471;-64
2023/10/24 10:53:50;;;;;;;2.85;1.80;;;;;;;;;;5038139;28;20453;-65
2023/10/24 10:56:20;;;;;;;2.78;1.80;;;;;;;;;;5036649;28;20424;-66
2023/10/24 10:59:10;;;;;;;2.08;1.60;;;;;;;;;;5035787;28;20513;-66
2023/10/24 11:01:42;;;;;;;2.35;1.65;;;;;;;;;;5039388;28;20475;-67
2023/10/24 11:04:13;;;;;;;4.10;1.48;;;;;;;;;;5035105;28;20407;-62
2023/10/24 11:06:42;;;;;;;2.58;1.52;;;;;;;;;;5048540;28;20537;-62
2023/10/24 11:09:10;;;;;;;2.95;1.52;;;;;;;;;;5040730;28;20405;-62
2023/10/24 11:11:39;;;;;;;2.13;1.40;;;;;;;;;;5041513;28;20417;-62
2023/10/24 11:14:15;;;;;;;2.55;1.60;;;;;;;;;;5039528;28;20883;-62
2023/10/24 11:16:44;;;;;;;2.63;1.50;;;;;;;;;;5040591;28;20431;-65
2023/10/24 11:19:11;;;;;;;2.00;1.40;;;;;;;;;;5042483;28;20463;-65
2023/10/24 11:21:38;;;;;;;1.88;1.60;;;;;;;;;;5039534;28;20821;-62
2023/10/24 11:24:05;;;;;;;3.55;1.80;;;;;;;;;;5040380;28;21123;-62
2023/10/24 11:26:32;;;;;;;2.42;1.90;;;;;;;;;;5042147;28;20466;-63
2023/10/24 11:28:59;;;;;;;2.13;1.65;;;;;;;;;;5037424;28;20425;-63
2023/10/24 11:31:27;;;;;;;4.05;1.83;;;;;;;;;;5035479;28;20451;-62
2023/10/24 11:33:56;;;;;;;2.33;1.63;;;;;;;;;;5034856;28;20909;-61
2023/10/24 11:36:24;;;;;;;3.15;1.60;;;;;;;;;;5044477;28;20449;-62
2023/10/24 11:38:51;;;;;;;2.15;1.40;;;;;;;;;;5041444;28;20633;-62
2023/10/24 11:41:18;;;;;;;3.58;1.80;;;;;;;;;;5041912;28;20441;-61
2023/10/24 11:43:47;;;;;;;3.90;1.63;;;;;;;;;;5038162;28;20847;-61
2023/10/24 11:46:14;;;;;;;3.55;1.70;;;;;;;;;;5041406;28;20428;-61
2023/10/24 11:48:41;;;;;;;2.53;1.70;;;;;;;;;;5034005;28;20422;-65
2023/10/24 11:51:10;;;;;;;3.60;1.80;;;;;;;;;;5033785;28;20477;-65
2023/10/24 11:53:37;;;;;;;1.98;1.70;;;;;;;;;;5036841;28;20410;-63
2023/10/24 11:56:04;;;;;;;2.40;1.60;;;;;;;;;;5032770;28;20472;-63
2023/10/24 11:58:32;;;;;;;3.47;2.10;;;;;;;;;;5037092;28;20409;-64
2023/10/24 12:01:00;;;;;;;8.70;3.63;;;;;;;;;;5034616;28;20470;-66
2023/10/24 12:03:27;;;;;;;3.45;1.70;;;;;;;;;;5039872;28;20454;-67
2023/10/24 12:05:55;;;;;;;2.83;1.83;;;;;;;;;;5046896;28;20420;-63
2023/10/24 12:08:25;;;;;;;3.35;1.67;;;;;;;;;;5045904;28;20915;-62
2023/10/24 12:10:56;;;;;;;4.32;1.60;;;;;;;;;;5031654;28;20470;-67
2023/10/24 12:13:23;;;;;;;3.05;1.80;;;;;;;;;;5030049;28;20991;-66
2023/10/24 12:15:50;;;;;;;2.50;1.98;;;;;;;;;;5029393;28;20555;-65
2023/10/24 12:18:19;;;;;;;2.15;1.70;;;;;;;;;;5029339;28;21221;-66
2023/10/24 12:20:46;;;;;;;5.13;2.35;;;;;;;;;;5030122;28;20418;-69
2023/10/24 12:23:13;;;;;;;3.80;1.80;;;;;;;;;;5037951;28;20417;-62
2023/10/24 12:25:42;;;;;;;3.85;2.10;;;;;;;;;;5039087;28;20885;-62
2023/10/24 12:28:09;;;;;;;3.25;1.70;;;;;;;;;;5038957;28;20448;-63
2023/10/24 12:30:36;;;;;;;3.95;1.73;;;;;;;;;;5041233;28;20494;-62
2023/10/24 12:39:17;;;;;;;3.15;1.73;;;;;;;;;;5019445;28;20425;-74
2023/10/24 12:41:45;;;;;;;2.05;1.77;;;;;;;;;;5041066;28;20470;-66
2023/10/24 12:44:12;;;;;;;3.87;1.90;;;;;;;;;;5039574;28;20462;-62
2023/10/24 12:46:39;;;;;;;5.25;1.83;;;;;;;;;;5042124;28;20901;-65
2023/10/24 12:49:06;;;;;;;3.72;1.92;;;;;;;;;;5037513;28;20446;-65
2023/10/24 12:51:33;;;;;;;4.47;2.45;;;;;;;;;;5036462;28;20803;-65
2023/10/24 12:54:00;;;;;;;4.68;2.45;;;;;;;;;;5040053;28;20412;-66
2023/10/24 12:56:27;;;;;;;3.78;2.58;;;;;;;;;;5036664;28;20429;-66
2023/10/24 12:58:56;;;;;;;3.97;2.88;;;;;;;;;;5035527;28;20505;-65
2023/10/24 13:01:24;;;;;;;4.23;3.00;;;;;;;;;;5039557;28;20420;-65
2023/10/24 13:03:52;;;;;;;5.00;3.30;;;;;;;;;;5043965;28;20498;-64
2023/10/24 13:06:19;;;;;;;7.20;4.10;;;;;;;;;;5060662;28;20418;-64
2023/10/24 13:08:47;;;;;;;6.13;4.00;;;;;;;;;;5060439;28;20428;-66
2023/10/24 13:11:14;;;;;;;5.87;4.20;;;;;;;;;;5050486;28;20549;-64
2023/10/24 13:13:41;;;;;;;5.70;4.70;;;;;;;;;;5046995;28;20797;-64
2023/10/24 13:16:09;;;;;;;7.18;4.82;;;;;;;;;;5042742;28;20518;-64
2023/10/24 13:18:36;;;;;;;6.15;5.07;;;;;;;;;;5042792;28;20411;-64
2023/10/24 13:21:04;;;;;;;7.50;5.30;;;;;;;;;;5044119;28;20405;-64
2023/10/24 13:23:31;;;;;;;5.68;4.80;;;;;;;;;;5044691;28;20416;-65
2023/10/24 13:25:58;;;;;;;5.65;4.22;;;;;;;;;;5041641;28;20411;-65
2023/10/24 13:28:25;;;;;;;5.10;3.85;;;;;;;;;;5045433;28;20413;-65
2023/10/24 13:30:52;;;;;;;4.00;3.60;;;;;;;;;;5043985;28;20437;-65
2023/10/24 13:33:20;;;;;;;4.78;4.28;;;;;;;;;;5041642;28;20473;-65
2023/10/24 13:35:48;;;;;;;4.85;4.35;;;;;;;;;;5047301;28;20787;-62
2023/10/24 13:38:15;;;;;;;6.53;4.95;;;;;;;;;;5047357;28;20418;-61
2023/10/24 13:40:42;;;;;;;7.45;5.22;;;;;;;;;;5044242;28;20405;-62
2023/10/24 13:43:09;;;;;;;4.45;3.25;;;;;;;;;;5042008;28;20885;-62
2023/10/24 13:45:36;;;;;;;4.13;3.10;;;;;;;;;;5042660;28;20461;-65
2023/10/24 13:48:03;;;;;;;5.15;3.92;;;;;;;;;;5044078;28;21126;-62
2023/10/24 13:50:31;;;;;;;3.97;3.47;;;;;;;;;;5042175;28;20494;-63
2023/10/24 13:52:58;;;;;;;4.57;3.33;;;;;;;;;;5042390;28;20480;-62
2023/10/24 13:55:25;;;;;;;4.53;3.45;;;;;;;;;;5049851;28;20495;-62
2023/10/24 13:57:52;;;;;;;4.20;3.47;;;;;;;;;;5044864;28;20420;-63
2023/10/24 14:00:19;;;;;;;4.65;3.28;;;;;;;;;;5045324;28;20420;-62
2023/10/24 14:02:46;;;;;;;3.43;2.63;;;;;;;;;;5044878;28;20910;-62
2023/10/24 14:05:13;;;;;;;4.05;2.88;;;;;;;;;;5047399;28;20405;-62
2023/10/24 14:07:42;;;;;;;4.67;3.67;;;;;;;;;;5047203;28;20508;-62
2023/10/24 14:10:09;;;;;;;3.50;3.00;;;;;;;;;;5039214;28;20419;-62
2023/10/24 14:12:36;;;;;;;3.33;2.60;;;;;;;;;;5043406;28;20830;-62
2023/10/24 14:15:03;;;;;;;3.42;2.47;;;;;;;;;;5042991;28;20495;-62
2023/10/24 14:17:30;;;;;;;3.28;2.38;;;;;;;;;;5040663;28;20410;-62
2023/10/24 14:19:57;;;;;;;3.70;2.70;;;;;;;;;;5043366;28;20409;-62
2023/10/24 14:22:24;;;;;;;3.53;2.40;;;;;;;;;;5045936;28;20418;-62
2023/10/24 14:24:53;;;;;;;2.58;2.30;;;;;;;;;;5044252;28;20417;-62
2023/10/24 14:27:20;;;;;;;2.97;2.10;;;;;;;;;;5039505;28;21032;-62
2023/10/24 14:29:47;;;;;;;3.10;2.00;;;;;;;;;;5045641;28;20463;-62
2023/10/24 14:32:15;;;;;;;3.60;2.22;;;;;;;;;;5045701;28;20423;-62
2023/10/24 14:34:42;;;;;;;3.30;2.38;;;;;;;;;;5042703;28;20443;-67
2023/10/24 14:37:09;;;;;;;2.67;2.03;;;;;;;;;;5048671;28;20866;-66
2023/10/24 14:39:36;;;;;;;2.90;1.77;;;;;;;;;;5044311;28;20486;-61
2023/10/24 14:42:04;;;;;;;2.20;1.95;;;;;;;;;;5040396;28;20415;-62
2023/10/24 14:44:31;;;;;;;3.10;2.00;;;;;;;;;;5042976;28;20432;-62
2023/10/24 14:46:58;;;;;;;2.27;2.07;;;;;;;;;;5041112;28;20407;-62
2023/10/24 14:49:26;;;;;;;3.10;1.90;;;;;;;;;;5040434;28;21040;-62
2023/10/24 14:51:53;;;;;;;3.03;1.90;;;;;;;;;;5041377;28;20421;-63